sensor_id;sensor_type;location;lat;lon;timestamp;P1;durP1;ratioP1;P2;durP2;ratioP2
43841;SDS011;29495;49.970;20.842;2024-01-30T02:07:43;14.48;;;7.10;;
43841;SDS011;29495;49.970;20.842;2024-01-30T02:10:10;12.70;;;7.55;;
43841;SDS011;29495;49.970;20.842;2024-01-30T02:12:36;13.35;;;8.20;;
43841;SDS011;29495;49.970;20.842;2024-01-30T02:15:03;12.63;;;6.88;;
43841;SDS011;29495;49.970;20.842;2024-01-30T02:17:31;14.73;;;7.13;;
43841;SDS011;29495;49.970;20.842;2024-01-30T02:19:58;16.60;;;8.52;;
43841;SDS011;29495;49.970;20.842;2024-01-30T02:22:24;15.77;;;7.10;;
43841;SDS011;29495;49.970;20.842;2024-01-30T02:24:51;13.43;;;7.13;;
43841;SDS011;29495;49.970;20.842;2024-01-30T02:27:17;16.58;;;7.30;;
43841;SDS011;29495;49.970;20.842;2024-01-30T02:29:43;13.93;;;7.70;;
43841;SDS011;29495;49.970;20.842;2024-01-30T02:32:09;16.38;;;8.68;;
43841;SDS011;29495;49.970;20.842;2024-01-30T02:34:36;14.10;;;8.05;;
43841;SDS011;29495;49.970;20.842;2024-01-30T02:37:02;14.50;;;7.50;;
43841;SDS011;29495;49.970;20.842;2024-01-30T02:39:28;15.70;;;7.80;;
43841;SDS011;29495;49.970;20.842;2024-01-30T02:41:56;14.32;;;8.32;;
43841;SDS011;29495;49.970;20.842;2024-01-30T02:44:23;11.68;;;7.55;;
43841;SDS011;29495;49.970;20.842;2024-01-30T02:46:49;12.48;;;7.80;;
43841;SDS011;29495;49.970;20.842;2024-01-30T02:49:15;16.15;;;7.72;;
43841;SDS011;29495;49.970;20.842;2024-01-30T02:51:42;14.48;;;7.93;;
43841;SDS011;29495;49.970;20.842;2024-01-30T02:54:08;14.48;;;7.97;;
43841;SDS011;29495;49.970;20.842;2024-01-30T02:56:35;15.32;;;8.95;;
43841;SDS011;29495;49.970;20.842;2024-01-30T02:59:01;16.33;;;8.48;;
43841;SDS011;29495;49.970;20.842;2024-01-30T03:01:27;13.02;;;7.60;;
43841;SDS011;29495;49.970;20.842;2024-01-30T03:03:55;14.98;;;7.75;;
43841;SDS011;29495;49.970;20.842;2024-01-30T03:06:22;12.63;;;7.65;;
43841;SDS011;29495;49.970;20.842;2024-01-30T03:08:49;15.20;;;8.43;;
43841;SDS011;29495;49.970;20.842;2024-01-30T03:11:15;13.98;;;7.80;;
43841;SDS011;29495;49.970;20.842;2024-01-30T03:13:41;15.20;;;8.07;;
43841;SDS011;29495;49.970;20.842;2024-01-30T03:16:08;12.63;;;7.30;;
43841;SDS011;29495;49.970;20.842;2024-01-30T03:18:34;12.90;;;7.43;;
43841;SDS011;29495;49.970;20.842;2024-01-30T03:21:00;14.70;;;7.30;;
43841;SDS011;29495;49.970;20.842;2024-01-30T03:23:26;16.90;;;7.95;;
43841;SDS011;29495;49.970;20.842;2024-01-30T03:25:53;12.45;;;7.20;;
43841;SDS011;29495;49.970;20.842;2024-01-30T03:28:19;13.80;;;7.63;;
43841;SDS011;29495;49.970;20.842;2024-01-30T03:30:45;13.13;;;7.57;;
43841;SDS011;29495;49.970;20.842;2024-01-30T03:33:11;14.95;;;8.40;;
43841;SDS011;29495;49.970;20.842;2024-01-30T03:35:38;14.43;;;8.38;;
43841;SDS011;29495;49.970;20.842;2024-01-30T03:38:06;12.93;;;7.40;;
43841;SDS011;29495;49.970;20.842;2024-01-30T03:40:40;14.55;;;8.10;;
43841;SDS011;29495;49.970;20.842;2024-01-30T03:43:06;12.93;;;7.03;;
43841;SDS011;29495;49.970;20.842;2024-01-30T03:45:32;19.55;;;10.70;;
43841;SDS011;29495;49.970;20.842;2024-01-30T03:47:58;21.52;;;12.45;;
43841;SDS011;29495;49.970;20.842;2024-01-30T03:50:24;17.80;;;10.90;;
43841;SDS011;29495;49.970;20.842;2024-01-30T03:52:50;15.77;;;9.25;;
43841;SDS011;29495;49.970;20.842;2024-01-30T03:55:16;13.38;;;8.25;;
43841;SDS011;29495;49.970;20.842;2024-01-30T03:57:43;16.08;;;8.10;;
43841;SDS011;29495;49.970;20.842;2024-01-30T04:00:09;15.00;;;8.10;;
43841;SDS011;29495;49.970;20.842;2024-01-30T04:02:39;15.98;;;8.57;;
43841;SDS011;29495;49.970;20.842;2024-01-30T04:05:06;16.67;;;8.85;;
43841;SDS011;29495;49.970;20.842;2024-01-30T04:07:32;16.23;;;9.30;;
43841;SDS011;29495;49.970;20.842;2024-01-30T04:09:58;14.68;;;8.27;;
43841;SDS011;29495;49.970;20.842;2024-01-30T04:12:24;16.58;;;8.35;;
43841;SDS011;29495;49.970;20.842;2024-01-30T05:42:56;16.35;;;9.65;;
43841;SDS011;29495;49.970;20.842;2024-01-30T05:45:26;17.30;;;8.57;;
43841;SDS011;29495;49.970;20.842;2024-01-30T05:47:53;15.32;;;8.85;;
43841;SDS011;29495;49.970;20.842;2024-01-30T05:50:19;15.45;;;8.45;;
43841;SDS011;29495;49.970;20.842;2024-01-30T05:52:48;15.57;;;8.77;;
43841;SDS011;29495;49.970;20.842;2024-01-30T05:55:16;24.88;;;10.20;;
43841;SDS011;29495;49.970;20.842;2024-01-30T05:57:42;22.80;;;11.23;;
43841;SDS011;29495;49.970;20.842;2024-01-30T06:17:44;17.70;;;9.35;;
43841;SDS011;29495;49.970;20.842;2024-01-30T07:33:21;15.18;;;8.77;;
43841;SDS011;29495;49.970;20.842;2024-01-30T07:35:56;14.75;;;8.82;;
43841;SDS011;29495;49.970;20.842;2024-01-30T07:38:33;16.50;;;8.93;;
43841;SDS011;29495;49.970;20.842;2024-01-30T07:41:08;15.57;;;9.10;;
